Terminal Aerodrome Forecast
Issued by NWS

Home | Current Version | Previous Version | Graphics & Text | Print | Product List | Glossary On
Versions: 1 2 3 4 5 6 7 8 9 10 11 12 13 14
000
FTUS43 KICT 211444 AAA
TAFHUT
TAF AMD
KHUT 211444Z 2115/2212 19021G30KT P6SM SCT015 OVC025
     FM211700 19019G27KT P6SM VCSH BKN030
     FM211900 20017G24KT P6SM VCTS BKN030CB
     FM212200 32015G23KT P6SM VCTS BKN050CB
     FM220000 35010KT P6SM BKN100
     FM220600 34006KT P6SM SCT250=

USA.gov is the U.S. government's official web portal to all federal, state and local government web resources and services.